x

Bay Of Campeche - 214 Nm Ne Of Veracruz, Mx (42055) Wave Buoy

8:50am - Thu 11th Feb 2016 All times are UTC.

  • Sig Wave height 3.3ft
  • Swell Direction
  • Peak Period 8s
  • Average Period 5s
  • Wind
    7mph, 11mph gusts
  • Sea Temp 75°f
  • Air Temp 70°f
  • Sea Pressure 1024.8mb

More Historic Weather Station data

Upgrade to MSW Pro to gain access to the past 30 days of data for over 8000 Wavebouys and Weather Stations around the globe.

Join Pro

Comparision Forecast

View Surf forecast
   
Thu 02/11 8:50am 3.5ft 8s 5s 7 11 mph 1024.8mb 75f 70f
7:50am 3.5ft 8s 5s 7 9 mph 1025.4mb 75f 70f
6:50am 3.5ft 7s 5s 9 11 mph 1026mb 75f 70f
5:50am 3.5ft 8s 5s 9 13 mph 1026.6mb 75f 70f
4:50am 3.5ft 7s 5s 11 13 mph 1027.1mb 75f 70f
3:50am 3.5ft 7s 5s 9 11 mph 1027.5mb 75f 70f
2:50am 3.5ft 7s 5s 9 11 mph 1027.7mb 75f 70f
1:50am 4ft 7s 5s 9 13 mph 1027.6mb 75f 70f
12:50am 4ft 8s 5s 9 13 mph 1027.4mb 75f 70f
Wed 02/10 11:50pm 4ft 7s 5s 11 13 mph 1027.3mb 75f 70f
10:50pm 4ft 8s 5s 11 16 mph 1026.8mb 75f 70f
9:50pm 4.5ft 7s 6s 11 16 mph 1026.8mb 75f 70f
8:50pm 4ft 9s 5s 11 13 mph 1027.1mb 75f 70f
7:50pm 4.5ft 9s 5s 11 16 mph 1027.6mb 75f 69f
6:50pm 5ft 8s 6s 11 16 mph 1028.4mb 75f 69f
5:50pm 5ft 8s 6s 11 16 mph 1028.9mb 75f 69f
4:50pm 5ft 8s 6s 13 18 mph 1029.4mb 75f 69f
3:50pm 5ft 8s 6s 16 18 mph 1029.4mb 75f 69f
2:50pm 5ft 9s 6s 16 20 mph 1028.8mb 75f 69f
1:50pm 5.5ft 8s 6s 13 20 mph 1027.7mb 75f 69f
12:50pm 5ft 8s 6s 13 18 mph 1027.4mb 75f 68f
11:50am 5.5ft 9s 6s 13 18 mph 1026.8mb 75f 68f
10:50am 6ft 8s 6s 16 20 mph 1026.1mb 75f 68f
9:50am 6ft 8s 6s 13 18 mph 1025.9mb 75f 68f
8:50am 6ft 8s 6s 16 20 mph 1025.6mb 75f 68f
7:50am 6ft 9s 6s 16 20 mph 1026mb 75f 69f
6:50am 6.5ft 8s 6s 16 20 mph 1026.3mb 75f 69f
5:50am 6.5ft 9s 6s 13 20 mph 1026.8mb 75f 69f
4:50am 6ft 9s 6s 13 16 mph 1026.6mb 75f 69f
3:50am 7ft 9s 6s 13 16 mph 1026.7mb 75f 69f
2:50am 7ft 10s 7s 13 20 mph 1026.4mb 75f 69f
1:50am 7ft 10s 6s 16 20 mph 1025.9mb 75f 69f
12:50am 7ft 9s 6s 16 18 mph 1025.3mb 75f 69f
Tue 02/09 11:50pm 7ft 8s 6s 16 20 mph 1025mb 75f 69f
10:50pm 7ft 8s 6s 18 22 mph 1024.7mb 75f 69f
9:50pm 7ft 7s 6s 18 22 mph 1024.6mb 75f 69f
8:50pm 7ft 8s 6s 18 22 mph 1024.5mb 75f 69f
7:50pm 6.5ft 8s 6s 16 25 mph 1025.5mb 75f 69f
6:50pm 6.5ft 7s 6s 20 25 mph 1025.5mb 75f 69f
5:50pm 6ft 7s 5s 18 25 mph 1026.4mb 75f 69f
4:50pm 5ft 6s 5s 20 25 mph 1026.9mb 75f 69f
3:50pm 5ft 6s 5s 18 22 mph 1027.4mb 75f 69f
2:50pm 5ft 6s 5s 20 22 mph 1026.4mb 75f 69f
1:50pm 5ft 6s 5s 18 22 mph 1025.8mb 75f 69f
12:50pm 4.5ft 6s 5s 18 22 mph 1025.2mb 75f 70f
11:50am 4.5ft 6s 5s 20 25 mph 1024.4mb 75f 70f
10:50am 3.5ft 5s 4s 18 25 mph 1024.5mb 75f 70f
9:50am 3ft 5s 4s 18 22 mph 1023.9mb 75f 70f
8:50am 3ft 8s 5s 16 18 mph 1024.1mb 75f 70f
7:50am 3ft 5s 5s 11 16 mph 1024.7mb 75f 71f
6:50am 3.5ft 5s 5s 11 16 mph 1025.1mb 75f 71f
5:50am 3ft 5s 5s 11 13 mph 1025.2mb 75f 71f
4:50am 3ft 4s 4s 11 13 mph 1025.3mb 75f 71f
3:50am 3.5ft 5s 5s 11 13 mph 1025.1mb 75f 71f
2:50am 3.5ft 4s 4s 13 16 mph 1024.9mb 75f 70f
1:50am 3.5ft 4s 4s 16 18 mph 1024.5mb 75f 70f
12:50am 3.5ft 6s 4s 16 20 mph 1023.6mb 75f 70f
Mon 02/08 11:50pm 3ft 6s 4s 20 25 mph 1023.1mb 75f 71f
10:50pm 3ft 6s 5s 16 20 mph 1022.6mb 75f 71f
9:50pm 3ft 7s 5s 13 18 mph 1022.4mb 75f 70f
8:50pm 2.5ft 6s 5s 13 18 mph 1022.5mb 75f 70f
7:50pm 2.5ft 6s 5s 13 16 mph 1022.7mb 75f 70f
6:50pm 2.5ft 7s 5s 9 13 mph 1023.4mb 75f 70f
5:50pm 2.5ft 7s 5s 7 11 mph 1023.8mb 75f 70f
4:50pm 2.5ft 7s 5s 7 9 mph 1024.1mb 75f 70f
3:50pm 2.5ft 6s 5s 7 9 mph 1024.2mb 75f 70f
2:50pm 2.5ft 7s 5s 7 9 mph 1023.8mb 75f 70f
1:50pm 2.5ft 7s 5s 4 7 mph 1022.7mb 74f 69f
12:50pm 2.5ft 7s 5s 2 4 mph 1021.8mb 74f 69f
11:50am 3ft 7s 5s 2 4 mph 1021.1mb 74f 68f
10:50am 3ft 6s 5s 2 7 mph 1020.6mb 74f 68f
9:50am 3.5ft 7s 5s 2 4 mph 1020.2mb 75f 68f
8:50am 3.5ft 7s 5s 7 9 mph 1020.4mb 75f 68f
7:50am 3.5ft 7s 5s 7 9 mph 1021.1mb 75f 68f
6:50am 3.5ft 7s 6s 2 4 mph 1021.1mb 75f 68f
5:50am 4ft 8s 6s 4 7 mph 1021.6mb 74f 68f
4:50am 3.5ft 7s 6s 2 4 mph 1022.3mb 75f 68f
3:50am 4.5ft 8s 6s 2 4 mph 1022.7mb 74f 68f
2:50am 4.5ft 8s 6s 4 7 mph 1022.4mb 75f 68f
1:50am 4.5ft 8s 6s 4 9 mph 1022.1mb 75f 67f
12:50am 5ft 8s 6s 7 9 mph 1021.4mb 75f 67f
Sun 02/07 11:50pm 5ft 8s 6s 4 9 mph 1022.2mb 75f 67f
10:50pm 5ft 8s 6s 4 9 mph 1022.3mb 75f 68f
9:50pm 6ft 8s 6s 7 9 mph 1021.8mb 75f 68f
8:50pm 6ft 8s 6s 7 11 mph 1022.6mb 75f 67f
7:50pm 6ft 8s 6s 9 11 mph 1023.4mb 75f 67f
6:50pm 6ft 8s 6s 9 13 mph 1024.7mb 75f 67f
5:50pm 6ft 8s 6s 11 16 mph 1025.5mb 75f 68f
4:50pm 7ft 8s 6s 11 16 mph 1026.1mb 75f 67f
3:50pm 7ft 8s 6s 13 18 mph 1026.1mb 75f 67f
2:50pm 7ft 8s 6s 18 25 mph 1025.7mb 74f 67f
1:50pm 8.5ft 8s 6s 18 25 mph 1024.9mb 74f 67f
12:50pm 8ft 8s 6s 20 27 mph 1024.6mb 74f 67f
11:50am 8.5ft 8s 6s 22 29 mph 1024.1mb 74f 67f
10:50am 8ft 8s 6s 22 29 mph 1023.8mb 74f 67f